sensor_id;sensor_type;location;lat;lon;timestamp;temperature;humidity
2579;DHT22;1299;48.282;14.398;2022-11-20T00:00:24;2.50;99.90
2579;DHT22;1299;48.282;14.398;2022-11-20T00:02:51;2.50;99.90
2579;DHT22;1299;48.282;14.398;2022-11-20T00:05:18;2.70;99.90
2579;DHT22;1299;48.282;14.398;2022-11-20T00:07:47;2.50;99.90
2579;DHT22;1299;48.282;14.398;2022-11-20T00:10:15;2.40;99.90
2579;DHT22;1299;48.282;14.398;2022-11-20T00:12:42;2.20;99.90
2579;DHT22;1299;48.282;14.398;2022-11-20T00:15:10;2.30;99.90
2579;DHT22;1299;48.282;14.398;2022-11-20T00:17:37;1.90;99.90
2579;DHT22;1299;48.282;14.398;2022-11-20T00:20:05;2.20;99.90
2579;DHT22;1299;48.282;14.398;2022-11-20T00:22:32;2.40;99.90
2579;DHT22;1299;48.282;14.398;2022-11-20T00:25:01;2.60;99.90
2579;DHT22;1299;48.282;14.398;2022-11-20T00:27:28;2.40;99.90
2579;DHT22;1299;48.282;14.398;2022-11-20T00:29:55;2.60;99.90
2579;DHT22;1299;48.282;14.398;2022-11-20T00:32:22;2.20;99.90
2579;DHT22;1299;48.282;14.398;2022-11-20T00:34:50;2.30;99.90
2579;DHT22;1299;48.282;14.398;2022-11-20T00:37:17;2.30;99.90
2579;DHT22;1299;48.282;14.398;2022-11-20T00:39:44;2.50;99.90
2579;DHT22;1299;48.282;14.398;2022-11-20T00:42:12;2.60;99.90
2579;DHT22;1299;48.282;14.398;2022-11-20T00:44:40;2.30;99.90
2579;DHT22;1299;48.282;14.398;2022-11-20T00:47:07;2.00;99.90
2579;DHT22;1299;48.282;14.398;2022-11-20T00:49:34;2.10;99.90
2579;DHT22;1299;48.282;14.398;2022-11-20T00:52:01;1.70;99.90
2579;DHT22;1299;48.282;14.398;2022-11-20T00:54:29;1.80;99.90
2579;DHT22;1299;48.282;14.398;2022-11-20T00:56:56;2.00;99.90
2579;DHT22;1299;48.282;14.398;2022-11-20T00:59:24;2.20;99.90
2579;DHT22;1299;48.282;14.398;2022-11-20T01:01:52;2.40;99.90
2579;DHT22;1299;48.282;14.398;2022-11-20T01:04:19;2.10;99.90
2579;DHT22;1299;48.282;14.398;2022-11-20T01:06:46;2.00;99.90
2579;DHT22;1299;48.282;14.398;2022-11-20T01:09:14;2.00;99.90
2579;DHT22;1299;48.282;14.398;2022-11-20T01:11:43;2.10;99.90
2579;DHT22;1299;48.282;14.398;2022-11-20T01:14:12;2.20;99.90
2579;DHT22;1299;48.282;14.398;2022-11-20T01:16:43;2.20;99.90
2579;DHT22;1299;48.282;14.398;2022-11-20T01:19:13;2.10;99.90
2579;DHT22;1299;48.282;14.398;2022-11-20T01:21:42;2.10;99.90
2579;DHT22;1299;48.282;14.398;2022-11-20T01:24:12;1.90;99.90
2579;DHT22;1299;48.282;14.398;2022-11-20T01:26:41;2.00;99.90
2579;DHT22;1299;48.282;14.398;2022-11-20T01:31:41;2.30;99.90
2579;DHT22;1299;48.282;14.398;2022-11-20T01:34:10;2.50;99.90
2579;DHT22;1299;48.282;14.398;2022-11-20T01:36:38;2.40;99.90
2579;DHT22;1299;48.282;14.398;2022-11-20T01:39:07;2.40;99.90
2579;DHT22;1299;48.282;14.398;2022-11-20T01:41:36;2.50;99.90
2579;DHT22;1299;48.282;14.398;2022-11-20T01:44:39;2.60;99.90
2579;DHT22;1299;48.282;14.398;2022-11-20T01:47:14;2.70;99.90
2579;DHT22;1299;48.282;14.398;2022-11-20T01:49:46;2.80;99.90
2579;DHT22;1299;48.282;14.398;2022-11-20T01:52:17;2.90;99.90
2579;DHT22;1299;48.282;14.398;2022-11-20T01:54:49;2.90;99.90
2579;DHT22;1299;48.282;14.398;2022-11-20T01:57:20;2.90;99.90
2579;DHT22;1299;48.282;14.398;2022-11-20T01:59:53;3.00;99.90
2579;DHT22;1299;48.282;14.398;2022-11-20T02:02:26;2.60;99.90
2579;DHT22;1299;48.282;14.398;2022-11-20T02:04:55;2.50;99.90
2579;DHT22;1299;48.282;14.398;2022-11-20T02:07:24;2.30;99.90
2579;DHT22;1299;48.282;14.398;2022-11-20T02:09:51;2.20;99.90
2579;DHT22;1299;48.282;14.398;2022-11-20T02:12:19;2.20;99.90
2579;DHT22;1299;48.282;14.398;2022-11-20T02:15:15;2.00;99.90
2579;DHT22;1299;48.282;14.398;2022-11-20T02:17:44;2.00;99.90
2579;DHT22;1299;48.282;14.398;2022-11-20T02:20:12;2.30;99.90
2579;DHT22;1299;48.282;14.398;2022-11-20T02:22:45;2.40;99.90
2579;DHT22;1299;48.282;14.398;2022-11-20T02:25:17;2.60;99.90
2579;DHT22;1299;48.282;14.398;2022-11-20T02:27:46;2.40;99.90
2579;DHT22;1299;48.282;14.398;2022-11-20T02:30:14;2.30;99.90
2579;DHT22;1299;48.282;14.398;2022-11-20T02:32:42;2.60;99.90
2579;DHT22;1299;48.282;14.398;2022-11-20T02:35:39;2.80;99.90
2579;DHT22;1299;48.282;14.398;2022-11-20T02:38:00;2.90;99.90
2579;DHT22;1299;48.282;14.398;2022-11-20T02:40:30;3.00;99.90
2579;DHT22;1299;48.282;14.398;2022-11-20T02:42:57;3.00;99.90
2579;DHT22;1299;48.282;14.398;2022-11-20T02:45:24;3.10;99.90
2579;DHT22;1299;48.282;14.398;2022-11-20T02:47:52;3.10;99.90
2579;DHT22;1299;48.282;14.398;2022-11-20T02:50:19;3.10;99.90
2579;DHT22;1299;48.282;14.398;2022-11-20T02:52:47;2.70;99.90
2579;DHT22;1299;48.282;14.398;2022-11-20T02:55:14;2.60;99.90
2579;DHT22;1299;48.282;14.398;2022-11-20T02:57:43;2.10;99.90
2579;DHT22;1299;48.282;14.398;2022-11-20T03:00:11;2.50;99.90
2579;DHT22;1299;48.282;14.398;2022-11-20T03:02:38;2.50;99.90
2579;DHT22;1299;48.282;14.398;2022-11-20T03:05:06;2.10;99.90
2579;DHT22;1299;48.282;14.398;2022-11-20T03:07:34;2.10;99.90
2579;DHT22;1299;48.282;14.398;2022-11-20T03:10:01;1.90;99.90
2579;DHT22;1299;48.282;14.398;2022-11-20T03:12:28;2.00;99.90
2579;DHT22;1299;48.282;14.398;2022-11-20T03:14:57;1.90;99.90
2579;DHT22;1299;48.282;14.398;2022-11-20T03:17:24;1.80;99.90
2579;DHT22;1299;48.282;14.398;2022-11-20T03:19:51;1.80;99.90
2579;DHT22;1299;48.282;14.398;2022-11-20T03:22:19;1.80;99.90
2579;DHT22;1299;48.282;14.398;2022-11-20T03:24:46;2.10;99.90
2579;DHT22;1299;48.282;14.398;2022-11-20T03:27:14;1.90;99.90
2579;DHT22;1299;48.282;14.398;2022-11-20T03:29:41;2.10;99.90
2579;DHT22;1299;48.282;14.398;2022-11-20T03:32:09;2.10;99.90
2579;DHT22;1299;48.282;14.398;2022-11-20T03:34:37;2.30;99.90
2579;DHT22;1299;48.282;14.398;2022-11-20T03:37:04;2.10;99.90
2579;DHT22;1299;48.282;14.398;2022-11-20T03:39:31;2.20;99.90
2579;DHT22;1299;48.282;14.398;2022-11-20T03:41:58;2.30;99.90
2579;DHT22;1299;48.282;14.398;2022-11-20T03:44:26;2.30;99.90
2579;DHT22;1299;48.282;14.398;2022-11-20T03:46:53;2.30;99.90
2579;DHT22;1299;48.282;14.398;2022-11-20T03:49:21;2.30;99.90
2579;DHT22;1299;48.282;14.398;2022-11-20T03:51:49;2.30;99.90
2579;DHT22;1299;48.282;14.398;2022-11-20T03:54:16;2.40;99.90
2579;DHT22;1299;48.282;14.398;2022-11-20T03:56:43;2.50;99.90
2579;DHT22;1299;48.282;14.398;2022-11-20T03:59:10;2.20;99.90
2579;DHT22;1299;48.282;14.398;2022-11-20T04:01:38;2.10;99.90
2579;DHT22;1299;48.282;14.398;2022-11-20T04:04:05;2.00;99.90
2579;DHT22;1299;48.282;14.398;2022-11-20T04:06:36;2.10;99.90
2579;DHT22;1299;48.282;14.398;2022-11-20T04:09:05;2.10;99.90
2579;DHT22;1299;48.282;14.398;2022-11-20T04:11:36;2.10;99.90
2579;DHT22;1299;48.282;14.398;2022-11-20T04:14:05;2.40;99.90
2579;DHT22;1299;48.282;14.398;2022-11-20T04:16:34;2.30;99.90
2579;DHT22;1299;48.282;14.398;2022-11-20T04:19:03;2.40;99.90
2579;DHT22;1299;48.282;14.398;2022-11-20T04:21:31;2.40;99.90
2579;DHT22;1299;48.282;14.398;2022-11-20T04:24:00;2.30;99.90
2579;DHT22;1299;48.282;14.398;2022-11-20T04:26:28;2.20;99.90
2579;DHT22;1299;48.282;14.398;2022-11-20T04:28:56;2.00;99.90
2579;DHT22;1299;48.282;14.398;2022-11-20T04:31:26;2.00;99.90
2579;DHT22;1299;48.282;14.398;2022-11-20T04:33:53;1.60;99.90
2579;DHT22;1299;48.282;14.398;2022-11-20T04:36:22;1.70;99.90
2579;DHT22;1299;48.282;14.398;2022-11-20T04:38:51;1.90;99.90
2579;DHT22;1299;48.282;14.398;2022-11-20T04:41:22;1.90;99.90
2579;DHT22;1299;48.282;14.398;2022-11-20T04:43:50;1.90;99.90
2579;DHT22;1299;48.282;14.398;2022-11-20T04:46:19;1.80;99.90
2579;DHT22;1299;48.282;14.398;2022-11-20T04:48:47;2.00;99.90
2579;DHT22;1299;48.282;14.398;2022-11-20T04:51:15;2.20;99.90
2579;DHT22;1299;48.282;14.398;2022-11-20T04:53:42;2.10;99.90
2579;DHT22;1299;48.282;14.398;2022-11-20T04:56:10;2.20;99.90
2579;DHT22;1299;48.282;14.398;2022-11-20T04:58:40;2.30;99.90
2579;DHT22;1299;48.282;14.398;2022-11-20T05:01:09;2.60;99.90
2579;DHT22;1299;48.282;14.398;2022-11-20T05:03:37;2.80;99.90
2579;DHT22;1299;48.282;14.398;2022-11-20T05:06:06;2.90;99.90
2579;DHT22;1299;48.282;14.398;2022-11-20T05:08:33;2.90;99.90
2579;DHT22;1299;48.282;14.398;2022-11-20T05:11:02;2.90;99.90
2579;DHT22;1299;48.282;14.398;2022-11-20T05:13:29;3.00;99.90
2579;DHT22;1299;48.282;14.398;2022-11-20T05:16:02;3.00;99.90
2579;DHT22;1299;48.282;14.398;2022-11-20T05:18:30;2.90;99.90
2579;DHT22;1299;48.282;14.398;2022-11-20T05:20:58;2.80;99.90
2579;DHT22;1299;48.282;14.398;2022-11-20T05:23:26;2.70;99.90
2579;DHT22;1299;48.282;14.398;2022-11-20T05:25:54;2.70;99.90
2579;DHT22;1299;48.282;14.398;2022-11-20T05:28:22;2.80;99.90
2579;DHT22;1299;48.282;14.398;2022-11-20T05:30:50;3.00;99.90
2579;DHT22;1299;48.282;14.398;2022-11-20T05:33:19;3.00;99.90
2579;DHT22;1299;48.282;14.398;2022-11-20T05:35:46;3.00;99.90
2579;DHT22;1299;48.282;14.398;2022-11-20T05:38:14;2.90;99.90
2579;DHT22;1299;48.282;14.398;2022-11-20T05:40:41;2.80;99.90
2579;DHT22;1299;48.282;14.398;2022-11-20T05:43:08;2.80;99.90
2579;DHT22;1299;48.282;14.398;2022-11-20T05:45:36;2.80;99.90
2579;DHT22;1299;48.282;14.398;2022-11-20T05:48:03;2.30;99.90
2579;DHT22;1299;48.282;14.398;2022-11-20T05:50:32;2.40;99.90
2579;DHT22;1299;48.282;14.398;2022-11-20T05:53:00;2.70;99.90
2579;DHT22;1299;48.282;14.398;2022-11-20T05:55:27;2.90;99.90
2579;DHT22;1299;48.282;14.398;2022-11-20T05:57:55;3.10;99.90
2579;DHT22;1299;48.282;14.398;2022-11-20T06:00:22;3.20;99.90
2579;DHT22;1299;48.282;14.398;2022-11-20T06:02:49;3.20;99.90
2579;DHT22;1299;48.282;14.398;2022-11-20T06:05:16;3.30;99.90
2579;DHT22;1299;48.282;14.398;2022-11-20T06:07:45;3.30;99.90
2579;DHT22;1299;48.282;14.398;2022-11-20T06:10:12;3.40;99.90
2579;DHT22;1299;48.282;14.398;2022-11-20T06:12:39;3.40;99.90
2579;DHT22;1299;48.282;14.398;2022-11-20T06:15:07;3.50;99.90
2579;DHT22;1299;48.282;14.398;2022-11-20T06:17:35;3.40;99.90
2579;DHT22;1299;48.282;14.398;2022-11-20T06:20:02;3.30;99.90
2579;DHT22;1299;48.282;14.398;2022-11-20T06:22:29;2.60;99.90
2579;DHT22;1299;48.282;14.398;2022-11-20T06:24:58;3.00;99.90
2579;DHT22;1299;48.282;14.398;2022-11-20T06:27:25;3.20;99.90
2579;DHT22;1299;48.282;14.398;2022-11-20T06:29:53;3.30;99.90
2579;DHT22;1299;48.282;14.398;2022-11-20T06:32:21;3.10;99.90
2579;DHT22;1299;48.282;14.398;2022-11-20T06:34:48;3.20;99.90
2579;DHT22;1299;48.282;14.398;2022-11-20T06:37:15;3.20;99.90
2579;DHT22;1299;48.282;14.398;2022-11-20T06:39:42;3.10;99.90
2579;DHT22;1299;48.282;14.398;2022-11-20T06:42:11;3.20;99.90
2579;DHT22;1299;48.282;14.398;2022-11-20T06:44:38;3.20;99.90
2579;DHT22;1299;48.282;14.398;2022-11-20T06:47:06;3.10;99.90
2579;DHT22;1299;48.282;14.398;2022-11-20T06:49:33;2.50;99.90
2579;DHT22;1299;48.282;14.398;2022-11-20T06:52:03;2.30;99.90
2579;DHT22;1299;48.282;14.398;2022-11-20T06:54:30;2.30;99.90
2579;DHT22;1299;48.282;14.398;2022-11-20T06:56:57;2.10;99.90
2579;DHT22;1299;48.282;14.398;2022-11-20T06:59:26;2.20;99.90
2579;DHT22;1299;48.282;14.398;2022-11-20T07:01:53;2.40;99.90
2579;DHT22;1299;48.282;14.398;2022-11-20T07:04:20;2.30;99.90
2579;DHT22;1299;48.282;14.398;2022-11-20T07:06:48;2.40;99.90
2579;DHT22;1299;48.282;14.398;2022-11-20T07:09:15;2.50;99.90
2579;DHT22;1299;48.282;14.398;2022-11-20T07:11:43;2.30;99.90
2579;DHT22;1299;48.282;14.398;2022-11-20T07:14:10;2.50;99.90
2579;DHT22;1299;48.282;14.398;2022-11-20T07:16:38;2.80;99.90
2579;DHT22;1299;48.282;14.398;2022-11-20T07:19:06;3.00;99.90
2579;DHT22;1299;48.282;14.398;2022-11-20T07:21:33;2.70;99.90
2579;DHT22;1299;48.282;14.398;2022-11-20T07:24:00;2.90;99.90
2579;DHT22;1299;48.282;14.398;2022-11-20T07:26:27;2.90;99.90
2579;DHT22;1299;48.282;14.398;2022-11-20T07:28:55;3.10;99.90
2579;DHT22;1299;48.282;14.398;2022-11-20T07:31:22;2.80;99.90
2579;DHT22;1299;48.282;14.398;2022-11-20T07:33:50;2.70;99.90
2579;DHT22;1299;48.282;14.398;2022-11-20T07:36:18;3.00;99.90
2579;DHT22;1299;48.282;14.398;2022-11-20T07:38:45;3.10;99.90
2579;DHT22;1299;48.282;14.398;2022-11-20T07:41:12;3.30;99.90
2579;DHT22;1299;48.282;14.398;2022-11-20T07:43:39;3.40;99.90
2579;DHT22;1299;48.282;14.398;2022-11-20T07:46:07;3.60;99.90
2579;DHT22;1299;48.282;14.398;2022-11-20T07:48:34;3.40;99.90
2579;DHT22;1299;48.282;14.398;2022-11-20T07:51:03;3.40;99.90
2579;DHT22;1299;48.282;14.398;2022-11-20T07:53:30;3.30;99.90
2579;DHT22;1299;48.282;14.398;2022-11-20T07:55:59;3.30;99.90
2579;DHT22;1299;48.282;14.398;2022-11-20T07:58:29;3.10;99.90
2579;DHT22;1299;48.282;14.398;2022-11-20T08:01:01;3.10;99.90
2579;DHT22;1299;48.282;14.398;2022-11-20T08:03:29;3.10;99.90
2579;DHT22;1299;48.282;14.398;2022-11-20T08:05:59;3.10;99.90
2579;DHT22;1299;48.282;14.398;2022-11-20T08:08:29;3.30;99.90
2579;DHT22;1299;48.282;14.398;2022-11-20T08:10:57;3.40;99.90
2579;DHT22;1299;48.282;14.398;2022-11-20T08:13:45;3.50;99.90
2579;DHT22;1299;48.282;14.398;2022-11-20T08:16:29;3.50;99.90
2579;DHT22;1299;48.282;14.398;2022-11-20T08:18:57;3.50;99.90
2579;DHT22;1299;48.282;14.398;2022-11-20T08:21:24;3.40;99.90
2579;DHT22;1299;48.282;14.398;2022-11-20T08:23:52;3.20;99.90
2579;DHT22;1299;48.282;14.398;2022-11-20T08:26:21;3.00;99.90
2579;DHT22;1299;48.282;14.398;2022-11-20T08:28:48;3.10;99.90
2579;DHT22;1299;48.282;14.398;2022-11-20T08:31:15;3.30;99.90
2579;DHT22;1299;48.282;14.398;2022-11-20T08:33:42;3.30;99.90
2579;DHT22;1299;48.282;14.398;2022-11-20T08:36:10;3.60;99.90
2579;DHT22;1299;48.282;14.398;2022-11-20T08:38:37;3.40;99.90
2579;DHT22;1299;48.282;14.398;2022-11-20T08:41:06;3.60;99.90
2579;DHT22;1299;48.282;14.398;2022-11-20T08:43:52;3.70;99.90
2579;DHT22;1299;48.282;14.398;2022-11-20T08:46:19;3.70;99.90
2579;DHT22;1299;48.282;14.398;2022-11-20T08:48:46;3.80;99.90
2579;DHT22;1299;48.282;14.398;2022-11-20T08:51:14;3.80;99.90
2579;DHT22;1299;48.282;14.398;2022-11-20T08:53:41;3.70;99.90
2579;DHT22;1299;48.282;14.398;2022-11-20T08:56:11;3.70;99.90
2579;DHT22;1299;48.282;14.398;2022-11-20T08:58:38;3.50;99.90
2579;DHT22;1299;48.282;14.398;2022-11-20T09:01:06;3.60;99.90
2579;DHT22;1299;48.282;14.398;2022-11-20T09:03:33;3.70;99.90
2579;DHT22;1299;48.282;14.398;2022-11-20T09:06:01;3.90;99.90
2579;DHT22;1299;48.282;14.398;2022-11-20T09:08:29;4.10;99.90
2579;DHT22;1299;48.282;14.398;2022-11-20T09:10:57;4.20;99.90
2579;DHT22;1299;48.282;14.398;2022-11-20T09:13:27;4.10;99.90
2579;DHT22;1299;48.282;14.398;2022-11-20T09:15:56;4.10;99.90
2579;DHT22;1299;48.282;14.398;2022-11-20T09:18:23;3.60;99.90
2579;DHT22;1299;48.282;14.398;2022-11-20T09:20:51;3.90;99.90
2579;DHT22;1299;48.282;14.398;2022-11-20T09:23:19;3.60;99.90
2579;DHT22;1299;48.282;14.398;2022-11-20T09:25:46;3.70;99.90
2579;DHT22;1299;48.282;14.398;2022-11-20T09:28:13;4.00;99.90
2579;DHT22;1299;48.282;14.398;2022-11-20T09:30:42;4.00;99.90
2579;DHT22;1299;48.282;14.398;2022-11-20T09:33:09;4.30;99.90
2579;DHT22;1299;48.282;14.398;2022-11-20T09:35:36;4.10;99.90
2579;DHT22;1299;48.282;14.398;2022-11-20T09:38:07;4.20;99.90
2579;DHT22;1299;48.282;14.398;2022-11-20T09:40:40;4.30;99.90
2579;DHT22;1299;48.282;14.398;2022-11-20T09:43:14;4.30;99.90
2579;DHT22;1299;48.282;14.398;2022-11-20T09:45:56;4.40;99.90
2579;DHT22;1299;48.282;14.398;2022-11-20T09:48:48;4.50;99.90
2579;DHT22;1299;48.282;14.398;2022-11-20T09:51:30;4.10;99.90
2579;DHT22;1299;48.282;14.398;2022-11-20T09:54:09;4.40;99.90
2579;DHT22;1299;48.282;14.398;2022-11-20T09:56:42;4.60;99.90
2579;DHT22;1299;48.282;14.398;2022-11-20T09:59:26;4.90;99.90
2579;DHT22;1299;48.282;14.398;2022-11-20T10:01:57;5.00;99.90
2579;DHT22;1299;48.282;14.398;2022-11-20T10:04:26;5.20;99.90
2579;DHT22;1299;48.282;14.398;2022-11-20T10:07:00;4.60;99.90
2579;DHT22;1299;48.282;14.398;2022-11-20T10:09:32;4.90;99.90
2579;DHT22;1299;48.282;14.398;2022-11-20T10:12:11;5.20;99.90
2579;DHT22;1299;48.282;14.398;2022-11-20T10:14:53;5.00;99.90
2579;DHT22;1299;48.282;14.398;2022-11-20T10:17:33;5.00;99.90
2579;DHT22;1299;48.282;14.398;2022-11-20T10:20:16;4.90;99.90
2579;DHT22;1299;48.282;14.398;2022-11-20T10:23:11;5.70;99.90
2579;DHT22;1299;48.282;14.398;2022-11-20T10:25:48;6.00;99.90
2579;DHT22;1299;48.282;14.398;2022-11-20T10:28:27;6.30;99.90
2579;DHT22;1299;48.282;14.398;2022-11-20T10:31:00;6.40;99.90
2579;DHT22;1299;48.282;14.398;2022-11-20T10:33:34;6.40;99.90
2579;DHT22;1299;48.282;14.398;2022-11-20T10:36:11;6.50;99.90
2579;DHT22;1299;48.282;14.398;2022-11-20T10:38:43;6.30;99.90
2579;DHT22;1299;48.282;14.398;2022-11-20T10:41:16;5.80;99.90
2579;DHT22;1299;48.282;14.398;2022-11-20T10:44:02;6.10;99.90
2579;DHT22;1299;48.282;14.398;2022-11-20T10:46:36;5.90;99.90
2579;DHT22;1299;48.282;14.398;2022-11-20T10:49:13;5.90;99.90
2579;DHT22;1299;48.282;14.398;2022-11-20T10:51:54;6.10;99.90
2579;DHT22;1299;48.282;14.398;2022-11-20T10:54:34;6.30;99.90
2579;DHT22;1299;48.282;14.398;2022-11-20T10:57:10;6.60;99.90
2579;DHT22;1299;48.282;14.398;2022-11-20T11:00:02;6.60;99.90
2579;DHT22;1299;48.282;14.398;2022-11-20T11:02:37;6.60;99.90
2579;DHT22;1299;48.282;14.398;2022-11-20T11:05:24;6.80;99.90
2579;DHT22;1299;48.282;14.398;2022-11-20T11:07:57;7.00;99.90
2579;DHT22;1299;48.282;14.398;2022-11-20T11:10:35;7.10;99.90
2579;DHT22;1299;48.282;14.398;2022-11-20T11:13:03;7.20;99.90
2579;DHT22;1299;48.282;14.398;2022-11-20T11:15:37;7.30;99.90
2579;DHT22;1299;48.282;14.398;2022-11-20T11:18:08;7.40;99.90
2579;DHT22;1299;48.282;14.398;2022-11-20T11:20:37;7.40;99.90
2579;DHT22;1299;48.282;14.398;2022-11-20T11:23:29;7.40;99.90
2579;DHT22;1299;48.282;14.398;2022-11-20T11:25:59;7.30;99.90
2579;DHT22;1299;48.282;14.398;2022-11-20T11:28:27;7.30;99.90
2579;DHT22;1299;48.282;14.398;2022-11-20T11:30:55;7.10;99.90
2579;DHT22;1299;48.282;14.398;2022-11-20T11:33:23;6.80;99.90
2579;DHT22;1299;48.282;14.398;2022-11-20T11:35:54;6.80;99.90
2579;DHT22;1299;48.282;14.398;2022-11-20T11:38:29;6.80;99.90
2579;DHT22;1299;48.282;14.398;2022-11-20T11:40:57;6.60;99.90
2579;DHT22;1299;48.282;14.398;2022-11-20T11:43:26;6.50;99.90
2579;DHT22;1299;48.282;14.398;2022-11-20T11:46:30;6.40;99.90
2579;DHT22;1299;48.282;14.398;2022-11-20T11:48:59;6.50;99.90
2579;DHT22;1299;48.282;14.398;2022-11-20T11:51:34;6.50;99.90
2579;DHT22;1299;48.282;14.398;2022-11-20T11:54:14;6.50;99.90
2579;DHT22;1299;48.282;14.398;2022-11-20T11:56:43;6.60;99.90
2579;DHT22;1299;48.282;14.398;2022-11-20T11:59:16;6.30;99.90
2579;DHT22;1299;48.282;14.398;2022-11-20T12:01:51;6.40;99.90
2579;DHT22;1299;48.282;14.398;2022-11-20T12:04:42;6.50;99.90
2579;DHT22;1299;48.282;14.398;2022-11-20T12:07:15;6.50;99.90
2579;DHT22;1299;48.282;14.398;2022-11-20T12:09:54;6.50;99.90
2579;DHT22;1299;48.282;14.398;2022-11-20T12:12:27;6.50;99.90
2579;DHT22;1299;48.282;14.398;2022-11-20T12:14:57;6.40;99.90
2579;DHT22;1299;48.282;14.398;2022-11-20T12:17:25;6.40;99.90
2579;DHT22;1299;48.282;14.398;2022-11-20T12:19:52;6.50;99.90
2579;DHT22;1299;48.282;14.398;2022-11-20T12:22:29;6.40;99.90
2579;DHT22;1299;48.282;14.398;2022-11-20T12:25:04;6.40;99.90
2579;DHT22;1299;48.282;14.398;2022-11-20T12:27:54;6.30;99.90
2579;DHT22;1299;48.282;14.398;2022-11-20T12:30:26;6.10;99.90
2579;DHT22;1299;48.282;14.398;2022-11-20T12:33:20;6.20;99.90
2579;DHT22;1299;48.282;14.398;2022-11-20T12:36:10;6.00;99.90
2579;DHT22;1299;48.282;14.398;2022-11-20T12:42:13;6.00;99.90
2579;DHT22;1299;48.282;14.398;2022-11-20T12:45:28;5.40;99.90
2579;DHT22;1299;48.282;14.398;2022-11-20T12:51:34;5.00;99.90
2579;DHT22;1299;48.282;14.398;2022-11-20T12:54:27;5.20;99.90
2579;DHT22;1299;48.282;14.398;2022-11-20T12:57:04;5.60;99.90
2579;DHT22;1299;48.282;14.398;2022-11-20T12:59:55;5.80;99.90
2579;DHT22;1299;48.282;14.398;2022-11-20T13:02:30;5.80;99.90
2579;DHT22;1299;48.282;14.398;2022-11-20T13:05:19;6.00;99.90
2579;DHT22;1299;48.282;14.398;2022-11-20T13:07:48;6.10;99.90
2579;DHT22;1299;48.282;14.398;2022-11-20T13:10:26;6.10;99.90
2579;DHT22;1299;48.282;14.398;2022-11-20T13:13:01;6.20;99.90
2579;DHT22;1299;48.282;14.398;2022-11-20T13:15:41;6.30;99.90
2579;DHT22;1299;48.282;14.398;2022-11-20T13:18:12;6.40;99.90
2579;DHT22;1299;48.282;14.398;2022-11-20T13:20:44;6.40;99.90
2579;DHT22;1299;48.282;14.398;2022-11-20T13:23:24;6.40;99.90
2579;DHT22;1299;48.282;14.398;2022-11-20T13:26:04;6.40;99.90
2579;DHT22;1299;48.282;14.398;2022-11-20T13:28:33;6.40;99.90
2579;DHT22;1299;48.282;14.398;2022-11-20T13:31:02;6.40;99.90
2579;DHT22;1299;48.282;14.398;2022-11-20T13:33:32;6.40;99.90
2579;DHT22;1299;48.282;14.398;2022-11-20T13:36:02;6.30;99.90
2579;DHT22;1299;48.282;14.398;2022-11-20T13:38:43;6.20;99.90
2579;DHT22;1299;48.282;14.398;2022-11-20T13:41:22;6.00;99.90
2579;DHT22;1299;48.282;14.398;2022-11-20T13:44:10;6.10;99.90
2579;DHT22;1299;48.282;14.398;2022-11-20T13:46:42;6.20;99.90
2579;DHT22;1299;48.282;14.398;2022-11-20T13:49:16;6.30;99.90
2579;DHT22;1299;48.282;14.398;2022-11-20T13:51:47;6.40;99.90
2579;DHT22;1299;48.282;14.398;2022-11-20T13:54:42;6.40;99.90
2579;DHT22;1299;48.282;14.398;2022-11-20T14:00:23;6.00;99.90
2579;DHT22;1299;48.282;14.398;2022-11-20T14:03:01;6.20;99.90
2579;DHT22;1299;48.282;14.398;2022-11-20T14:05:33;6.30;99.90
2579;DHT22;1299;48.282;14.398;2022-11-20T14:08:04;6.40;99.90
2579;DHT22;1299;48.282;14.398;2022-11-20T14:10:33;6.40;99.90
2579;DHT22;1299;48.282;14.398;2022-11-20T14:13:10;6.40;99.90
2579;DHT22;1299;48.282;14.398;2022-11-20T14:15:43;6.50;99.90
2579;DHT22;1299;48.282;14.398;2022-11-20T14:18:18;6.50;99.90
2579;DHT22;1299;48.282;14.398;2022-11-20T14:20:48;6.50;99.90
2579;DHT22;1299;48.282;14.398;2022-11-20T14:23:25;6.60;99.90
2579;DHT22;1299;48.282;14.398;2022-11-20T14:25:53;6.50;99.90
2579;DHT22;1299;48.282;14.398;2022-11-20T14:28:29;6.50;99.90
2579;DHT22;1299;48.282;14.398;2022-11-20T14:30:59;6.30;99.90
2579;DHT22;1299;48.282;14.398;2022-11-20T14:33:28;6.20;99.90
2579;DHT22;1299;48.282;14.398;2022-11-20T14:35:57;6.20;99.90
2579;DHT22;1299;48.282;14.398;2022-11-20T14:38:27;6.40;99.90
2579;DHT22;1299;48.282;14.398;2022-11-20T14:41:07;6.30;99.90
2579;DHT22;1299;48.282;14.398;2022-11-20T14:43:35;6.40;99.90
2579;DHT22;1299;48.282;14.398;2022-11-20T14:46:10;6.40;99.90
2579;DHT22;1299;48.282;14.398;2022-11-20T14:48:41;6.40;99.90
2579;DHT22;1299;48.282;14.398;2022-11-20T14:51:15;6.50;99.90
2579;DHT22;1299;48.282;14.398;2022-11-20T14:53:51;6.50;99.90
2579;DHT22;1299;48.282;14.398;2022-11-20T14:56:22;6.50;99.90
2579;DHT22;1299;48.282;14.398;2022-11-20T14:58:59;6.50;99.90
2579;DHT22;1299;48.282;14.398;2022-11-20T15:01:30;6.50;99.90
2579;DHT22;1299;48.282;14.398;2022-11-20T15:04:04;6.50;99.90
2579;DHT22;1299;48.282;14.398;2022-11-20T15:06:32;6.40;99.90
2579;DHT22;1299;48.282;14.398;2022-11-20T15:08:59;6.40;99.90
2579;DHT22;1299;48.282;14.398;2022-11-20T15:11:31;6.30;99.90
2579;DHT22;1299;48.282;14.398;2022-11-20T15:14:03;6.20;99.90
2579;DHT22;1299;48.282;14.398;2022-11-20T15:16:33;6.20;99.90
2579;DHT22;1299;48.282;14.398;2022-11-20T15:19:02;6.20;99.90
2579;DHT22;1299;48.282;14.398;2022-11-20T15:21:31;6.20;99.90
2579;DHT22;1299;48.282;14.398;2022-11-20T15:23:58;6.10;99.90
2579;DHT22;1299;48.282;14.398;2022-11-20T15:26:27;6.10;99.90
2579;DHT22;1299;48.282;14.398;2022-11-20T15:28:55;6.10;99.90
2579;DHT22;1299;48.282;14.398;2022-11-20T15:31:23;6.00;99.90
2579;DHT22;1299;48.282;14.398;2022-11-20T15:33:53;6.00;99.90
2579;DHT22;1299;48.282;14.398;2022-11-20T15:36:21;6.00;99.90
2579;DHT22;1299;48.282;14.398;2022-11-20T15:38:52;6.00;99.90
2579;DHT22;1299;48.282;14.398;2022-11-20T15:41:20;6.00;99.90
2579;DHT22;1299;48.282;14.398;2022-11-20T15:43:48;5.90;99.90
2579;DHT22;1299;48.282;14.398;2022-11-20T15:46:19;5.90;99.90
2579;DHT22;1299;48.282;14.398;2022-11-20T15:48:54;5.90;99.90
2579;DHT22;1299;48.282;14.398;2022-11-20T15:51:27;5.50;99.90
2579;DHT22;1299;48.282;14.398;2022-11-20T15:53:55;5.70;99.90
2579;DHT22;1299;48.282;14.398;2022-11-20T15:56:25;5.80;99.90
2579;DHT22;1299;48.282;14.398;2022-11-20T15:58:54;6.00;99.90
2579;DHT22;1299;48.282;14.398;2022-11-20T16:01:22;5.90;99.90
2579;DHT22;1299;48.282;14.398;2022-11-20T16:03:50;5.90;99.90
2579;DHT22;1299;48.282;14.398;2022-11-20T16:06:19;5.90;99.90
2579;DHT22;1299;48.282;14.398;2022-11-20T16:08:47;6.00;99.90
2579;DHT22;1299;48.282;14.398;2022-11-20T16:11:19;6.00;99.90
2579;DHT22;1299;48.282;14.398;2022-11-20T16:13:46;6.00;99.90
2579;DHT22;1299;48.282;14.398;2022-11-20T16:16:33;5.70;99.90
2579;DHT22;1299;48.282;14.398;2022-11-20T16:19:02;5.60;99.90
2579;DHT22;1299;48.282;14.398;2022-11-20T16:21:33;5.70;99.90
2579;DHT22;1299;48.282;14.398;2022-11-20T16:24:05;5.80;99.90
2579;DHT22;1299;48.282;14.398;2022-11-20T16:26:35;5.90;99.90
2579;DHT22;1299;48.282;14.398;2022-11-20T16:29:04;5.90;99.90
2579;DHT22;1299;48.282;14.398;2022-11-20T16:31:33;5.90;99.90
2579;DHT22;1299;48.282;14.398;2022-11-20T16:34:02;5.90;99.90
2579;DHT22;1299;48.282;14.398;2022-11-20T16:36:33;5.90;99.90
2579;DHT22;1299;48.282;14.398;2022-11-20T16:39:02;5.80;99.90